Terminal Aerodrome Forecast
Issued by NWS

Home | Current Version | Previous Version | Graphics & Text | Print | Product List | Glossary Off
Versions: 1 2 3 4 5 6 7 8 9 10 11 12 13 14 15 16 17

000
FTUS43 KDDC 211720
TAFHYS
TAF
KHYS 211720Z 2118/2218 18020G30KT P6SM SKC
     FM220000 17017G27KT P6SM SCT100
     FM220600 17010G20KT P6SM SKC WS020/18050KT
     FM221200 18015G25KT P6SM SKC
     FM221500 19022G32KT P6SM SKC=

USA.gov is the U.S. government's official web portal to all federal, state and local government web resources and services.